sensor_id;sensor_type;location;lat;lon;timestamp;pressure;altitude;pressure_sealevel;temperature;humidity
59053;BME280;44843;44.728;10.396;2023-01-10T00:01:47;99753.81;;;4.92;100.00
59053;BME280;44843;44.728;10.396;2023-01-10T00:04:13;99766.84;;;5.08;100.00
59053;BME280;44843;44.728;10.396;2023-01-10T00:06:38;99753.56;;;5.15;100.00
59053;BME280;44843;44.728;10.396;2023-01-10T00:09:03;99765.22;;;5.24;100.00
59053;BME280;44843;44.728;10.396;2023-01-10T00:11:29;99764.63;;;5.38;100.00
59053;BME280;44843;44.728;10.396;2023-01-10T00:14:12;99760.28;;;5.20;100.00
59053;BME280;44843;44.728;10.396;2023-01-10T00:16:38;99759.91;;;4.89;100.00
59053;BME280;44843;44.728;10.396;2023-01-10T00:19:04;99761.25;;;4.79;100.00
59053;BME280;44843;44.728;10.396;2023-01-10T00:21:30;99769.31;;;4.71;100.00
59053;BME280;44843;44.728;10.396;2023-01-10T00:23:55;99763.84;;;4.59;100.00
59053;BME280;44843;44.728;10.396;2023-01-10T00:26:39;99757.59;;;4.64;100.00
59053;BME280;44843;44.728;10.396;2023-01-10T00:29:05;99766.22;;;4.63;100.00
59053;BME280;44843;44.728;10.396;2023-01-10T00:31:32;99760.53;;;4.75;100.00
59053;BME280;44843;44.728;10.396;2023-01-10T00:33:57;99762.88;;;4.61;100.00
59053;BME280;44843;44.728;10.396;2023-01-10T00:36:22;99757.88;;;4.38;100.00
59053;BME280;44843;44.728;10.396;2023-01-10T00:38:48;99765.94;;;4.30;100.00
59053;BME280;44843;44.728;10.396;2023-01-10T00:41:14;99772.81;;;4.31;100.00
59053;BME280;44843;44.728;10.396;2023-01-10T00:43:58;99770.28;;;4.29;100.00
59053;BME280;44843;44.728;10.396;2023-01-10T00:46:24;99771.34;;;4.24;100.00
59053;BME280;44843;44.728;10.396;2023-01-10T00:48:50;99784.94;;;4.29;100.00
59053;BME280;44843;44.728;10.396;2023-01-10T00:51:15;99792.34;;;4.37;100.00
59053;BME280;44843;44.728;10.396;2023-01-10T00:53:40;99796.03;;;4.31;100.00
59053;BME280;44843;44.728;10.396;2023-01-10T00:56:06;99798.03;;;4.24;100.00
59053;BME280;44843;44.728;10.396;2023-01-10T00:58:31;99796.09;;;4.29;100.00
59053;BME280;44843;44.728;10.396;2023-01-10T01:00:58;99799.44;;;4.31;100.00
59053;BME280;44843;44.728;10.396;2023-01-10T01:03:23;99794.88;;;4.38;100.00
59053;BME280;44843;44.728;10.396;2023-01-10T01:05:49;99795.69;;;4.59;100.00
59053;BME280;44843;44.728;10.396;2023-01-10T01:08:15;99790.84;;;4.51;100.00
59053;BME280;44843;44.728;10.396;2023-01-10T01:10:41;99791.94;;;4.46;100.00
59053;BME280;44843;44.728;10.396;2023-01-10T01:13:09;99814.94;;;4.31;100.00
59053;BME280;44843;44.728;10.396;2023-01-10T01:15:35;99820.47;;;4.22;100.00
59053;BME280;44843;44.728;10.396;2023-01-10T01:18:01;99813.16;;;4.11;100.00
59053;BME280;44843;44.728;10.396;2023-01-10T01:20:28;99818.34;;;4.11;100.00
59053;BME280;44843;44.728;10.396;2023-01-10T01:22:53;99817.19;;;3.97;100.00
59053;BME280;44843;44.728;10.396;2023-01-10T01:25:18;99820.97;;;4.10;100.00
59053;BME280;44843;44.728;10.396;2023-01-10T01:27:44;99814.25;;;4.06;100.00
59053;BME280;44843;44.728;10.396;2023-01-10T01:30:10;99822.56;;;3.70;100.00
59053;BME280;44843;44.728;10.396;2023-01-10T01:32:35;61389.06;;;-146.16;100.00
59053;BME280;44843;44.728;10.396;2023-01-10T01:35:01;61389.06;;;-146.16;100.00
59053;BME280;44843;44.728;10.396;2023-01-10T01:37:26;61389.06;;;-146.16;100.00
59053;BME280;44843;44.728;10.396;2023-01-10T01:39:52;61389.06;;;-146.16;100.00
59053;BME280;44843;44.728;10.396;2023-01-10T01:50:15;61389.06;;;-146.16;100.00
59053;BME280;44843;44.728;10.396;2023-01-10T01:52:42;61389.06;;;-146.16;100.00
59053;BME280;44843;44.728;10.396;2023-01-10T01:55:07;61389.06;;;-146.16;100.00
59053;BME280;44843;44.728;10.396;2023-01-10T01:57:35;61389.06;;;-146.16;100.00
59053;BME280;44843;44.728;10.396;2023-01-10T02:00:03;61389.06;;;-146.16;100.00
59053;BME280;44843;44.728;10.396;2023-01-10T02:02:35;61389.06;;;-146.16;100.00
59053;BME280;44843;44.728;10.396;2023-01-10T02:05:05;61389.06;;;-146.16;100.00
59053;BME280;44843;44.728;10.396;2023-01-10T02:07:35;61389.06;;;-146.16;100.00
59053;BME280;44843;44.728;10.396;2023-01-10T02:12:46;61389.06;;;-146.16;100.00
59053;BME280;44843;44.728;10.396;2023-01-10T02:15:14;61389.06;;;-146.16;100.00
59053;BME280;44843;44.728;10.396;2023-01-10T02:17:40;61389.06;;;-146.16;100.00
59053;BME280;44843;44.728;10.396;2023-01-10T02:20:11;61389.06;;;-146.16;100.00
59053;BME280;44843;44.728;10.396;2023-01-10T02:22:54;61389.06;;;-146.16;100.00
59053;BME280;44843;44.728;10.396;2023-01-10T02:25:48;61389.06;;;-146.16;100.00
59053;BME280;44843;44.728;10.396;2023-01-10T02:34:12;61389.06;;;-146.16;100.00
59053;BME280;44843;44.728;10.396;2023-01-10T02:36:53;61389.06;;;-146.16;100.00
59053;BME280;44843;44.728;10.396;2023-01-10T02:39:24;61389.06;;;-146.16;100.00
59053;BME280;44843;44.728;10.396;2023-01-10T02:42:08;61389.06;;;-146.16;100.00
59053;BME280;44843;44.728;10.396;2023-01-10T02:44:41;61389.06;;;-146.16;100.00
59053;BME280;44843;44.728;10.396;2023-01-10T02:47:10;61389.06;;;-146.16;100.00
59053;BME280;44843;44.728;10.396;2023-01-10T02:49:42;61389.06;;;-146.16;100.00
59053;BME280;44843;44.728;10.396;2023-01-10T02:52:08;61389.06;;;-146.16;100.00
59053;BME280;44843;44.728;10.396;2023-01-10T02:54:34;61389.06;;;-146.16;100.00
59053;BME280;44843;44.728;10.396;2023-01-10T02:57:21;61389.06;;;-146.16;100.00
59053;BME280;44843;44.728;10.396;2023-01-10T03:08:25;61389.06;;;-146.16;100.00
59053;BME280;44843;44.728;10.396;2023-01-10T03:11:00;61389.06;;;-146.16;100.00
59053;BME280;44843;44.728;10.396;2023-01-10T03:13:33;61389.06;;;-146.16;100.00
59053;BME280;44843;44.728;10.396;2023-01-10T03:16:03;61389.06;;;-146.16;100.00
59053;BME280;44843;44.728;10.396;2023-01-10T03:18:34;61389.06;;;-146.16;100.00
59053;BME280;44843;44.728;10.396;2023-01-10T03:21:04;61389.06;;;-146.16;100.00
59053;BME280;44843;44.728;10.396;2023-01-10T03:23:31;61389.06;;;-146.16;100.00
59053;BME280;44843;44.728;10.396;2023-01-10T03:25:58;61389.06;;;-146.16;100.00
59053;BME280;44843;44.728;10.396;2023-01-10T03:28:43;61389.06;;;-146.16;100.00
59053;BME280;44843;44.728;10.396;2023-01-10T03:31:14;61389.06;;;-146.16;100.00
59053;BME280;44843;44.728;10.396;2023-01-10T03:33:41;61389.06;;;-146.16;100.00
59053;BME280;44843;44.728;10.396;2023-01-10T03:36:15;61389.06;;;-146.16;100.00
59053;BME280;44843;44.728;10.396;2023-01-10T03:39:04;61389.06;;;-146.16;100.00
59053;BME280;44843;44.728;10.396;2023-01-10T03:41:42;99963.81;;;2.61;nan
59053;BME280;44843;44.728;10.396;2023-01-10T03:44:18;99969.25;;;2.52;nan
59053;BME280;44843;44.728;10.396;2023-01-10T03:49:31;99970.84;;;2.56;nan
59053;BME280;44843;44.728;10.396;2023-01-10T03:51:59;99967.88;;;2.40;nan
59053;BME280;44843;44.728;10.396;2023-01-10T03:54:25;99974.88;;;2.37;nan
59053;BME280;44843;44.728;10.396;2023-01-10T03:56:51;99971.97;;;2.47;nan
59053;BME280;44843;44.728;10.396;2023-01-10T03:59:24;99975.81;;;2.34;nan
59053;BME280;44843;44.728;10.396;2023-01-10T04:01:50;99974.78;;;2.40;nan
59053;BME280;44843;44.728;10.396;2023-01-10T04:04:16;99963.13;;;2.56;nan
59053;BME280;44843;44.728;10.396;2023-01-10T04:06:42;99966.38;;;2.35;nan
59053;BME280;44843;44.728;10.396;2023-01-10T04:09:07;99976.75;;;2.32;nan
59053;BME280;44843;44.728;10.396;2023-01-10T04:11:33;99974.53;;;2.21;nan
59053;BME280;44843;44.728;10.396;2023-01-10T04:13:58;99979.38;;;2.30;nan
59053;BME280;44843;44.728;10.396;2023-01-10T04:16:24;99975.75;;;2.36;nan
59053;BME280;44843;44.728;10.396;2023-01-10T04:18:49;99973.94;;;2.39;nan
59053;BME280;44843;44.728;10.396;2023-01-10T04:21:14;99968.41;;;2.52;nan
59053;BME280;44843;44.728;10.396;2023-01-10T04:23:40;99965.41;;;2.65;nan
59053;BME280;44843;44.728;10.396;2023-01-10T04:26:05;99967.78;;;2.72;nan
59053;BME280;44843;44.728;10.396;2023-01-10T04:28:31;99963.78;;;2.88;nan
59053;BME280;44843;44.728;10.396;2023-01-10T04:30:56;99965.06;;;3.01;nan
59053;BME280;44843;44.728;10.396;2023-01-10T04:33:22;99961.13;;;3.16;nan
59053;BME280;44843;44.728;10.396;2023-01-10T04:35:48;99956.97;;;3.37;nan
59053;BME280;44843;44.728;10.396;2023-01-10T04:38:14;99963.31;;;3.52;nan
59053;BME280;44843;44.728;10.396;2023-01-10T04:40:40;99968.41;;;3.77;nan
59053;BME280;44843;44.728;10.396;2023-01-10T04:43:06;99976.72;;;4.09;nan
59053;BME280;44843;44.728;10.396;2023-01-10T04:45:31;99981.31;;;4.45;nan
59053;BME280;44843;44.728;10.396;2023-01-10T04:47:57;99992.22;;;4.53;nan
59053;BME280;44843;44.728;10.396;2023-01-10T04:50:24;100000.47;;;4.61;nan
59053;BME280;44843;44.728;10.396;2023-01-10T04:52:49;99987.56;;;4.61;nan
59053;BME280;44843;44.728;10.396;2023-01-10T04:55:15;100007.91;;;4.69;nan
59053;BME280;44843;44.728;10.396;2023-01-10T04:57:40;100000.63;;;4.79;nan
59053;BME280;44843;44.728;10.396;2023-01-10T05:00:07;100000.91;;;4.72;nan
59053;BME280;44843;44.728;10.396;2023-01-10T05:02:32;100000.63;;;4.79;nan
59053;BME280;44843;44.728;10.396;2023-01-10T05:04:58;100008.97;;;4.85;nan
59053;BME280;44843;44.728;10.396;2023-01-10T05:07:23;100012.41;;;4.86;nan
59053;BME280;44843;44.728;10.396;2023-01-10T05:09:48;100013.31;;;4.85;nan
59053;BME280;44843;44.728;10.396;2023-01-10T05:12:14;100013.69;;;4.96;nan
59053;BME280;44843;44.728;10.396;2023-01-10T05:14:39;100021.00;;;4.86;nan
59053;BME280;44843;44.728;10.396;2023-01-10T05:17:04;100027.72;;;4.90;nan
59053;BME280;44843;44.728;10.396;2023-01-10T05:19:30;100037.22;;;4.90;nan
59053;BME280;44843;44.728;10.396;2023-01-10T05:21:55;100040.13;;;5.03;nan
59053;BME280;44843;44.728;10.396;2023-01-10T05:24:21;100048.25;;;4.93;nan
59053;BME280;44843;44.728;10.396;2023-01-10T05:26:46;100047.88;;;5.03;nan
59053;BME280;44843;44.728;10.396;2023-01-10T05:29:12;100053.41;;;5.15;nan
59053;BME280;44843;44.728;10.396;2023-01-10T05:31:38;100061.81;;;5.21;nan
59053;BME280;44843;44.728;10.396;2023-01-10T05:34:04;100055.00;;;5.40;nan
59053;BME280;44843;44.728;10.396;2023-01-10T05:36:29;100054.50;;;5.51;nan
59053;BME280;44843;44.728;10.396;2023-01-10T05:38:55;100061.09;;;5.78;nan
59053;BME280;44843;44.728;10.396;2023-01-10T05:41:20;100061.28;;;5.74;nan
59053;BME280;44843;44.728;10.396;2023-01-10T05:43:45;100065.84;;;5.88;nan
59053;BME280;44843;44.728;10.396;2023-01-10T05:46:11;100071.94;;;5.87;nan
59053;BME280;44843;44.728;10.396;2023-01-10T05:48:36;100082.31;;;5.87;nan
59053;BME280;44843;44.728;10.396;2023-01-10T05:51:02;100085.16;;;5.81;nan
59053;BME280;44843;44.728;10.396;2023-01-10T05:53:28;100083.53;;;5.78;nan
59053;BME280;44843;44.728;10.396;2023-01-10T05:55:58;100090.84;;;5.89;nan
59053;BME280;44843;44.728;10.396;2023-01-10T05:58:24;100101.13;;;5.90;nan
59053;BME280;44843;44.728;10.396;2023-01-10T06:00:50;100104.81;;;6.05;nan
59053;BME280;44843;44.728;10.396;2023-01-10T06:03:15;100104.13;;;6.02;nan
59053;BME280;44843;44.728;10.396;2023-01-10T06:05:41;100099.09;;;6.17;nan
59053;BME280;44843;44.728;10.396;2023-01-10T06:08:06;100111.41;;;6.12;nan
59053;BME280;44843;44.728;10.396;2023-01-10T06:10:32;100122.88;;;6.07;nan
59053;BME280;44843;44.728;10.396;2023-01-10T06:12:57;100117.06;;;6.21;nan
59053;BME280;44843;44.728;10.396;2023-01-10T06:15:22;100125.50;;;6.26;nan
59053;BME280;44843;44.728;10.396;2023-01-10T06:17:48;100142.84;;;6.24;nan
59053;BME280;44843;44.728;10.396;2023-01-10T06:20:13;100134.78;;;6.11;nan
59053;BME280;44843;44.728;10.396;2023-01-10T06:22:42;100144.59;;;6.23;nan
59053;BME280;44843;44.728;10.396;2023-01-10T06:25:09;100139.38;;;6.44;nan
59053;BME280;44843;44.728;10.396;2023-01-10T06:27:35;100153.50;;;6.55;nan
59053;BME280;44843;44.728;10.396;2023-01-10T06:30:02;100149.38;;;6.70;nan
59053;BME280;44843;44.728;10.396;2023-01-10T06:32:27;100153.19;;;6.63;nan
59053;BME280;44843;44.728;10.396;2023-01-10T06:34:53;100156.38;;;6.68;nan
59053;BME280;44843;44.728;10.396;2023-01-10T06:37:18;100168.22;;;6.74;nan
59053;BME280;44843;44.728;10.396;2023-01-10T06:39:43;100165.91;;;6.68;nan
59053;BME280;44843;44.728;10.396;2023-01-10T06:42:10;100181.78;;;6.60;nan
59053;BME280;44843;44.728;10.396;2023-01-10T06:44:36;100178.81;;;6.69;nan
59053;BME280;44843;44.728;10.396;2023-01-10T06:47:01;100195.88;;;6.73;nan
59053;BME280;44843;44.728;10.396;2023-01-10T06:49:27;100201.22;;;6.70;nan
59053;BME280;44843;44.728;10.396;2023-01-10T06:51:53;100193.66;;;6.85;nan
59053;BME280;44843;44.728;10.396;2023-01-10T06:54:18;100200.66;;;6.83;nan
59053;BME280;44843;44.728;10.396;2023-01-10T06:56:46;100226.59;;;6.83;nan
59053;BME280;44843;44.728;10.396;2023-01-10T06:59:12;100212.69;;;6.84;nan
59053;BME280;44843;44.728;10.396;2023-01-10T07:01:37;100238.28;;;6.91;nan
59053;BME280;44843;44.728;10.396;2023-01-10T07:04:03;100237.63;;;6.86;nan
59053;BME280;44843;44.728;10.396;2023-01-10T07:06:28;100232.13;;;6.94;nan
59053;BME280;44843;44.728;10.396;2023-01-10T07:08:54;100240.25;;;7.05;nan
59053;BME280;44843;44.728;10.396;2023-01-10T07:11:19;100255.28;;;6.97;nan
59053;BME280;44843;44.728;10.396;2023-01-10T07:13:44;100249.56;;;7.09;nan
59053;BME280;44843;44.728;10.396;2023-01-10T07:16:12;100261.59;;;7.29;nan
59053;BME280;44843;44.728;10.396;2023-01-10T07:18:39;100259.00;;;7.48;nan
59053;BME280;44843;44.728;10.396;2023-01-10T07:21:06;100275.94;;;7.55;nan
59053;BME280;44843;44.728;10.396;2023-01-10T07:23:31;100281.75;;;7.60;nan
59053;BME280;44843;44.728;10.396;2023-01-10T07:25:58;100292.78;;;7.66;nan
59053;BME280;44843;44.728;10.396;2023-01-10T07:28:26;100286.53;;;7.51;nan
59053;BME280;44843;44.728;10.396;2023-01-10T07:30:51;100291.56;;;7.54;nan
59053;BME280;44843;44.728;10.396;2023-01-10T07:33:16;100309.69;;;7.55;nan
59053;BME280;44843;44.728;10.396;2023-01-10T07:35:42;100319.91;;;7.58;nan
59053;BME280;44843;44.728;10.396;2023-01-10T07:38:07;100321.16;;;7.50;nan
59053;BME280;44843;44.728;10.396;2023-01-10T07:40:33;100323.59;;;7.54;nan
59053;BME280;44843;44.728;10.396;2023-01-10T07:43:00;100342.31;;;7.61;nan
59053;BME280;44843;44.728;10.396;2023-01-10T07:45:26;100336.19;;;7.62;nan
59053;BME280;44843;44.728;10.396;2023-01-10T07:47:58;100332.75;;;7.61;nan
59053;BME280;44843;44.728;10.396;2023-01-10T07:50:26;100333.41;;;7.84;nan
59053;BME280;44843;44.728;10.396;2023-01-10T07:52:52;100339.53;;;7.83;nan
59053;BME280;44843;44.728;10.396;2023-01-10T07:55:17;100337.16;;;7.78;nan
59053;BME280;44843;44.728;10.396;2023-01-10T07:57:43;100357.03;;;7.97;nan
59053;BME280;44843;44.728;10.396;2023-01-10T08:00:09;100358.25;;;7.90;nan
59053;BME280;44843;44.728;10.396;2023-01-10T08:02:35;100364.72;;;7.81;nan
59053;BME280;44843;44.728;10.396;2023-01-10T08:05:00;100355.34;;;7.78;nan
59053;BME280;44843;44.728;10.396;2023-01-10T08:07:28;100377.88;;;7.95;nan
59053;BME280;44843;44.728;10.396;2023-01-10T08:09:53;100378.84;;;8.12;nan
59053;BME280;44843;44.728;10.396;2023-01-10T08:12:19;100383.06;;;8.32;nan
59053;BME280;44843;44.728;10.396;2023-01-10T08:14:45;61389.06;;;-146.16;100.00
59053;BME280;44843;44.728;10.396;2023-01-10T08:17:10;61389.06;;;-146.16;100.00
59053;BME280;44843;44.728;10.396;2023-01-10T08:19:35;61389.06;;;-146.16;100.00
59053;BME280;44843;44.728;10.396;2023-01-10T08:22:01;61389.06;;;-146.16;100.00
59053;BME280;44843;44.728;10.396;2023-01-10T08:24:27;61389.06;;;-146.16;100.00
59053;BME280;44843;44.728;10.396;2023-01-10T08:26:53;61389.06;;;-146.16;100.00
59053;BME280;44843;44.728;10.396;2023-01-10T08:29:18;61389.06;;;-146.16;100.00
59053;BME280;44843;44.728;10.396;2023-01-10T08:31:43;61389.06;;;-146.16;100.00
59053;BME280;44843;44.728;10.396;2023-01-10T08:34:11;61389.06;;;-146.16;100.00
59053;BME280;44843;44.728;10.396;2023-01-10T08:36:37;61389.06;;;-146.16;100.00
59053;BME280;44843;44.728;10.396;2023-01-10T08:39:02;61389.06;;;-146.16;100.00
59053;BME280;44843;44.728;10.396;2023-01-10T08:41:28;61389.06;;;-146.16;100.00
59053;BME280;44843;44.728;10.396;2023-01-10T08:43:53;61389.06;;;-146.16;100.00
59053;BME280;44843;44.728;10.396;2023-01-10T08:46:19;61389.06;;;-146.16;100.00
59053;BME280;44843;44.728;10.396;2023-01-10T08:48:44;61389.06;;;-146.16;100.00
59053;BME280;44843;44.728;10.396;2023-01-10T08:51:10;61389.06;;;-146.16;100.00
59053;BME280;44843;44.728;10.396;2023-01-10T08:53:38;61389.06;;;-146.16;100.00
59053;BME280;44843;44.728;10.396;2023-01-10T08:56:04;61389.06;;;-146.16;100.00
59053;BME280;44843;44.728;10.396;2023-01-10T08:58:29;61389.06;;;-146.16;100.00
59053;BME280;44843;44.728;10.396;2023-01-10T09:00:54;61389.06;;;-146.16;100.00
59053;BME280;44843;44.728;10.396;2023-01-10T09:03:20;61389.06;;;-146.16;100.00
59053;BME280;44843;44.728;10.396;2023-01-10T09:05:45;61389.06;;;-146.16;100.00
59053;BME280;44843;44.728;10.396;2023-01-10T09:08:11;61389.06;;;-146.16;100.00
59053;BME280;44843;44.728;10.396;2023-01-10T09:10:36;61389.06;;;-146.16;100.00
59053;BME280;44843;44.728;10.396;2023-01-10T09:13:01;61389.06;;;-146.16;100.00
59053;BME280;44843;44.728;10.396;2023-01-10T09:15:33;61389.06;;;-146.16;100.00
59053;BME280;44843;44.728;10.396;2023-01-10T09:18:04;61389.06;;;-146.16;100.00
59053;BME280;44843;44.728;10.396;2023-01-10T09:20:30;61389.06;;;-146.16;100.00
59053;BME280;44843;44.728;10.396;2023-01-10T09:22:57;61389.06;;;-146.16;100.00
59053;BME280;44843;44.728;10.396;2023-01-10T09:25:23;61389.06;;;-146.16;100.00
59053;BME280;44843;44.728;10.396;2023-01-10T09:27:58;61389.06;;;-146.16;100.00
59053;BME280;44843;44.728;10.396;2023-01-10T09:30:25;61389.06;;;-146.16;100.00
59053;BME280;44843;44.728;10.396;2023-01-10T09:32:51;61389.06;;;-146.16;100.00
59053;BME280;44843;44.728;10.396;2023-01-10T09:35:17;61389.06;;;-146.16;100.00
59053;BME280;44843;44.728;10.396;2023-01-10T09:37:42;61389.06;;;-146.16;100.00
59053;BME280;44843;44.728;10.396;2023-01-10T09:40:12;61389.06;;;-146.16;100.00
59053;BME280;44843;44.728;10.396;2023-01-10T09:45:19;61389.06;;;-146.16;100.00
59053;BME280;44843;44.728;10.396;2023-01-10T09:47:54;61389.06;;;-146.16;100.00
59053;BME280;44843;44.728;10.396;2023-01-10T09:50:27;61389.06;;;-146.16;100.00
59053;BME280;44843;44.728;10.396;2023-01-10T09:53:01;61389.06;;;-146.16;100.00
59053;BME280;44843;44.728;10.396;2023-01-10T09:55:34;61389.06;;;-146.16;100.00
59053;BME280;44843;44.728;10.396;2023-01-10T09:58:03;61389.06;;;-146.16;100.00
59053;BME280;44843;44.728;10.396;2023-01-10T10:00:37;61389.06;;;-146.16;100.00
59053;BME280;44843;44.728;10.396;2023-01-10T10:05:41;61389.06;;;-146.16;100.00
59053;BME280;44843;44.728;10.396;2023-01-10T10:08:12;61389.06;;;-146.16;100.00
59053;BME280;44843;44.728;10.396;2023-01-10T10:10:45;61389.06;;;-146.16;100.00
59053;BME280;44843;44.728;10.396;2023-01-10T10:32:59;61389.06;;;-146.16;100.00
59053;BME280;44843;44.728;10.396;2023-01-10T10:35:38;61389.06;;;-146.16;100.00
59053;BME280;44843;44.728;10.396;2023-01-10T10:38:16;61389.06;;;-146.16;100.00
59053;BME280;44843;44.728;10.396;2023-01-10T10:40:44;61389.06;;;-146.16;100.00
59053;BME280;44843;44.728;10.396;2023-01-10T10:43:22;61389.06;;;-146.16;100.00
59053;BME280;44843;44.728;10.396;2023-01-10T10:45:56;61389.06;;;-146.16;100.00
59053;BME280;44843;44.728;10.396;2023-01-10T10:48:29;61389.06;;;-146.16;100.00
59053;BME280;44843;44.728;10.396;2023-01-10T10:53:23;61389.06;;;-146.16;100.00
59053;BME280;44843;44.728;10.396;2023-01-10T10:55:49;61389.06;;;-146.16;100.00
59053;BME280;44843;44.728;10.396;2023-01-10T10:58:17;61389.06;;;-146.16;100.00
59053;BME280;44843;44.728;10.396;2023-01-10T11:00:42;61389.06;;;-146.16;100.00
59053;BME280;44843;44.728;10.396;2023-01-10T11:05:45;61389.06;;;-146.16;100.00
59053;BME280;44843;44.728;10.396;2023-01-10T11:08:13;61389.06;;;-146.16;100.00
59053;BME280;44843;44.728;10.396;2023-01-10T11:10:50;61389.06;;;-146.16;100.00
59053;BME280;44843;44.728;10.396;2023-01-10T11:13:29;61389.06;;;-146.16;100.00
59053;BME280;44843;44.728;10.396;2023-01-10T11:16:03;61389.06;;;-146.16;100.00
59053;BME280;44843;44.728;10.396;2023-01-10T11:18:30;61389.06;;;-146.16;100.00
59053;BME280;44843;44.728;10.396;2023-01-10T11:21:13;61389.06;;;-146.16;100.00
59053;BME280;44843;44.728;10.396;2023-01-10T11:26:10;61389.06;;;-146.16;100.00
59053;BME280;44843;44.728;10.396;2023-01-10T11:28:46;61389.06;;;-146.16;100.00
59053;BME280;44843;44.728;10.396;2023-01-10T11:31:12;61389.06;;;-146.16;100.00
59053;BME280;44843;44.728;10.396;2023-01-10T11:33:37;61389.06;;;-146.16;100.00
59053;BME280;44843;44.728;10.396;2023-01-10T11:36:07;61389.06;;;-146.16;100.00
59053;BME280;44843;44.728;10.396;2023-01-10T11:38:33;61389.06;;;-146.16;100.00
59053;BME280;44843;44.728;10.396;2023-01-10T11:41:21;61389.06;;;-146.16;100.00
59053;BME280;44843;44.728;10.396;2023-01-10T11:43:47;61389.06;;;-146.16;100.00
59053;BME280;44843;44.728;10.396;2023-01-10T11:46:18;61389.06;;;-146.16;100.00
59053;BME280;44843;44.728;10.396;2023-01-10T11:48:59;61389.06;;;-146.16;100.00
59053;BME280;44843;44.728;10.396;2023-01-10T11:51:36;61389.06;;;-146.16;100.00
59053;BME280;44843;44.728;10.396;2023-01-10T11:54:05;61389.06;;;-146.16;100.00
59053;BME280;44843;44.728;10.396;2023-01-10T11:56:34;61389.06;;;-146.16;100.00
59053;BME280;44843;44.728;10.396;2023-01-10T11:59:08;61389.06;;;-146.16;100.00
59053;BME280;44843;44.728;10.396;2023-01-10T12:04:32;61389.06;;;-146.16;100.00
59053;BME280;44843;44.728;10.396;2023-01-10T12:07:02;61389.06;;;-146.16;100.00
59053;BME280;44843;44.728;10.396;2023-01-10T12:09:41;61389.06;;;-146.16;100.00
59053;BME280;44843;44.728;10.396;2023-01-10T12:12:14;61389.06;;;-146.16;100.00
59053;BME280;44843;44.728;10.396;2023-01-10T12:14:40;61389.06;;;-146.16;100.00
59053;BME280;44843;44.728;10.396;2023-01-10T12:17:17;61389.06;;;-146.16;100.00
59053;BME280;44843;44.728;10.396;2023-01-10T12:19:44;61389.06;;;-146.16;100.00
59053;BME280;44843;44.728;10.396;2023-01-10T12:22:11;61389.06;;;-146.16;100.00
59053;BME280;44843;44.728;10.396;2023-01-10T12:24:40;61389.06;;;-146.16;100.00
59053;BME280;44843;44.728;10.396;2023-01-10T12:27:11;61389.06;;;-146.16;100.00
59053;BME280;44843;44.728;10.396;2023-01-10T12:30:01;61389.06;;;-146.16;100.00
59053;BME280;44843;44.728;10.396;2023-01-10T12:32:45;61389.06;;;-146.16;100.00
59053;BME280;44843;44.728;10.396;2023-01-10T12:35:17;61389.06;;;-146.16;100.00
59053;BME280;44843;44.728;10.396;2023-01-10T12:37:50;61389.06;;;-146.16;100.00
59053;BME280;44843;44.728;10.396;2023-01-10T12:43:15;61389.06;;;-146.16;100.00
59053;BME280;44843;44.728;10.396;2023-01-10T12:48:53;61389.06;;;-146.16;100.00
59053;BME280;44843;44.728;10.396;2023-01-10T12:51:23;61389.06;;;-146.16;100.00
59053;BME280;44843;44.728;10.396;2023-01-10T12:53:54;61389.06;;;-146.16;100.00
59053;BME280;44843;44.728;10.396;2023-01-10T12:56:22;61389.06;;;-146.16;100.00
59053;BME280;44843;44.728;10.396;2023-01-10T12:58:55;61389.06;;;-146.16;100.00
59053;BME280;44843;44.728;10.396;2023-01-10T13:01:23;61389.06;;;-146.16;100.00
59053;BME280;44843;44.728;10.396;2023-01-10T13:03:55;61389.06;;;-146.16;100.00
59053;BME280;44843;44.728;10.396;2023-01-10T13:06:30;61389.06;;;-146.16;100.00
59053;BME280;44843;44.728;10.396;2023-01-10T13:09:01;61389.06;;;-146.16;100.00
59053;BME280;44843;44.728;10.396;2023-01-10T13:11:34;61389.06;;;-146.16;100.00
59053;BME280;44843;44.728;10.396;2023-01-10T13:14:03;61389.06;;;-146.16;100.00
59053;BME280;44843;44.728;10.396;2023-01-10T13:21:37;61389.06;;;-146.16;100.00
59053;BME280;44843;44.728;10.396;2023-01-10T13:29:25;61389.06;;;-146.16;100.00
59053;BME280;44843;44.728;10.396;2023-01-10T13:31:55;61389.06;;;-146.16;100.00
59053;BME280;44843;44.728;10.396;2023-01-10T13:34:23;61389.06;;;-146.16;100.00
59053;BME280;44843;44.728;10.396;2023-01-10T13:36:57;61389.06;;;-146.16;100.00
59053;BME280;44843;44.728;10.396;2023-01-10T13:39:35;61389.06;;;-146.16;100.00
59053;BME280;44843;44.728;10.396;2023-01-10T13:53:28;61389.06;;;-146.16;100.00
59053;BME280;44843;44.728;10.396;2023-01-10T14:03:55;61389.06;;;-146.16;100.00
59053;BME280;44843;44.728;10.396;2023-01-10T14:08:59;61389.06;;;-146.16;100.00
59053;BME280;44843;44.728;10.396;2023-01-10T14:14:36;61389.06;;;-146.16;100.00
59053;BME280;44843;44.728;10.396;2023-01-10T14:17:52;61389.06;;;-146.16;100.00
59053;BME280;44843;44.728;10.396;2023-01-10T14:20:13;61389.06;;;-146.16;100.00
59053;BME280;44843;44.728;10.396;2023-01-10T14:22:46;61389.06;;;-146.16;100.00
59053;BME280;44843;44.728;10.396;2023-01-10T14:25:21;61389.06;;;-146.16;100.00
59053;BME280;44843;44.728;10.396;2023-01-10T14:27:50;61389.06;;;-146.16;100.00
59053;BME280;44843;44.728;10.396;2023-01-10T14:30:34;61389.06;;;-146.16;100.00
59053;BME280;44843;44.728;10.396;2023-01-10T14:33:06;61389.06;;;-146.16;100.00
59053;BME280;44843;44.728;10.396;2023-01-10T14:35:43;61389.06;;;-146.16;100.00